• Join FlightAware (Why Join?)
  • Login
  • US Flag 
06:43AM EDT


 

Airport Tracker/Info


-or-


 

Live Flight TrackerFlight Track Log ✈ SWA1277 ✈ 14-Sep-2013 ✈ KSTL - KBOS

Flight Track Log - Related Links

Times and Time Zones

All times are in EDT time to prevent confusion due to time zone crossing. See the SWA1277 flight status page for this flight to view local times or setup timezone preferences in your user account.

Time Position Orientation Groundspeed Altitude Reporting Facility
EDT Latitude Longitude Course Direction KTS MPH feet Rate Location/Type
10:13AM 38.8300 -90.3967 North 226 260 4,100  Level Kansas City Center
10:14AM 38.8386 -90.3064 83° East 257 296 7,000 2,820 Climbing Kansas City Center
10:15AM 38.8331 -90.2058 94° East 275 316 9,900 2,760 Climbing Kansas City Center
10:16AM 38.8269 -90.0889 94° East 322 371 12,700 2,460 Climbing Kansas City Center
10:17AM 38.8192 -89.9594 94° East 353 406 15,000 1,080 Climbing Kansas City Center
10:18AM 38.9797 -89.5435 78° East  Level Estimated
10:18AM 38.8117 -89.8264 94° East 370 426 15,000  Level Kansas City Center
10:19AM 38.8044 -89.6953 94° East 369 425 16,600 2,160 Climbing Kansas City Center
10:20AM 38.7944 -89.5406 95° East 383 441 19,500 2,520 Climbing Kansas City Center
10:22AM 38.8061 -89.3986 84° East 401 461 21,800 2,040 Climbing Kansas City Center
10:23AM 38.8256 -89.2506 80° East 419 482 23,800 2,160 Climbing Kansas City Center
10:24AM 38.8461 -89.0867 81° East 432 497 26,300 2,040 Climbing Kansas City Center
10:25AM 38.8669 -88.9328 80° East 444 511 28,000 1,560 Climbing Kansas City Center
10:26AM 38.8892 -88.7703 80° East 458 527 29,600 1,560 Climbing Kansas City Center
10:27AM 38.9314 -88.6178 70° East 457 526 31,200 1,920 Climbing Kansas City Center
10:28AM 38.9786 -88.4669 68° East 456 525 33,600 2,340 Climbing Kansas City Center
10:29AM 39.0264 -88.3186 67° East 452 520 36,000 1,920 Climbing Kansas City Center
10:30AM 39.0714 -88.1803 67° East 440 506 37,600 960 Climbing Kansas City Center
10:31AM 39.1136 -88.0397 69° East 425 489 38,000 480 Climbing Indianapolis Center
10:32AM 39.1606 -87.8925 68° East 437 503 38,600 480 Climbing Indianapolis Center
10:33AM 39.2067 -87.7422 68° East 446 513 39,000 180 Climbing Indianapolis Center
10:34AM 39.2592 -87.5772 68° East 444 511 39,000  Level Indianapolis Center
10:35AM 39.3053 -87.4314 68° East 442 509 39,000  Level Indianapolis Center
10:36AM 39.3594 -87.2911 63° Northeast 439 505 39,000  Level Indianapolis Center
10:37AM 39.4150 -87.1519 63° Northeast 437 503 39,000  Level Indianapolis Center
10:38AM 39.4697 -87.0119 63° Northeast 437 503 39,000  Level Indianapolis Center
10:39AM 39.5242 -86.8731 63° Northeast 435 501 39,000  Level Indianapolis Center
10:40AM 39.5897 -86.7056 63° Northeast 436 502 39,000  Level Indianapolis Center
10:41AM 39.6414 -86.5725 63° Northeast 434 499 39,000  Level Indianapolis Center
10:42AM 39.6975 -86.4286 63° Northeast 433 498 39,000  Level Indianapolis Center
10:43AM 39.7517 -86.2917 63° Northeast 434 499 39,000  Level Indianapolis Center
10:44AM 39.8125 -86.1297 64° Northeast 439 505 39,000  Level Indianapolis Center
10:45AM 39.8658 -85.9886 64° Northeast 440 506 39,000  Level Indianapolis Center
10:46AM 39.9244 -85.8347 64° Northeast 439 505 39,000  Level Indianapolis Center
10:47AM 39.9769 -85.6914 64° Northeast 438 504 39,000  Level Indianapolis Center
10:48AM 40.0331 -85.5489 63° Northeast 441 507 39,000  Level Indianapolis Center
10:49AM 40.0808 -85.4197 64° Northeast 439 505 39,000  Level Indianapolis Center
10:50AM 40.1447 -85.2483 64° Northeast 438 504 39,000  Level Indianapolis Center
10:51AM 40.1964 -85.1056 65° Northeast 437 503 39,000  Level Indianapolis Center
10:52AM 40.2486 -84.9639 64° Northeast 434 499 39,000  Level Indianapolis Center
10:53AM 40.2975 -84.8350 64° Northeast 435 501 39,000  Level Indianapolis Center
10:54AM 40.3592 -84.6647 65° Northeast 431 496 39,000  Level Indianapolis Center
10:55AM 40.4114 -84.5233 64° Northeast 430 495 39,000  Level Indianapolis Center
10:56AM 40.4617 -84.3808 65° Northeast 430 495 39,000  Level Indianapolis Center
10:57AM 40.5133 -84.2383 64° Northeast 431 496 39,000  Level Indianapolis Center
10:58AM 40.5642 -84.0961 65° Northeast 429 494 39,000  Level Indianapolis Center
10:59AM 40.6144 -83.9522 65° Northeast 431 496 39,000  Level Indianapolis Center
11:00AM 40.6661 -83.8089 65° Northeast 433 498 39,000  Level Indianapolis Center
11:02AM 40.7169 -83.6650 65° Northeast 432 497 39,000  Level Indianapolis Center
11:03AM 40.7761 -83.4925 66° East 429 494 39,000  Level Indianapolis Center
11:04AM 40.8217 -83.3606 65° Northeast 431 496 39,000  Level Indianapolis Center
11:05AM 40.8722 -83.2167 65° Northeast 429 494 39,000  Level Indianapolis Center
11:06AM 40.9139 -83.0681 70° East 429 494 39,000  Level Indianapolis Center
11:07AM 40.9561 -82.9192 69° East 429 494 39,000  Level Indianapolis Center
11:08AM 41.0053 -82.7458 69° East 427 491 39,000  Level Indianapolis Center
11:09AM 41.0467 -82.5975 70° East 426 490 39,000  Level Indianapolis Center
11:10AM 41.0886 -82.4492 69° East 426 490 39,000  Level Indianapolis Center
11:11AM 41.1294 -82.2992 70° East 428 493 39,000  Level Indianapolis Center
11:12AM 41.1706 -82.1500 70° East 428 493 39,000  Level Indianapolis Center
11:13AM 41.2111 -82.0017 70° East 426 490 39,000  Level Indianapolis Center
11:14AM 41.2522 -81.8500 70° East 430 495 39,000  Level Indianapolis Center
11:15AM 41.2953 -81.6967 69° East 431 496 39,000  Level Indianapolis Center
11:16AM 41.3492 -81.4900 71° East 434 499 39,000  Level Cleveland Center
11:17AM 41.3853 -81.3561 70° East 431 496 39,000  Level Cleveland Center
11:18AM 41.4294 -81.1883 71° East 435 501 39,000  Level Cleveland Center
11:19AM 41.4731 -81.0244 70° East 433 498 39,000  Level Cleveland Center
11:20AM 41.5136 -80.8694 71° East 437 503 39,000  Level Cleveland Center
11:21AM 41.5556 -80.7153 70° East 438 504 39,000  Level Cleveland Center
11:22AM 41.5939 -80.5586 72° East 441 507 39,000  Level Cleveland Center
11:23AM 41.6339 -80.4025 71° East 441 507 39,000  Level Cleveland Center
11:24AM 41.6753 -80.2481 70° East 439 505 39,000  Level Cleveland Center
11:25AM 41.7136 -80.0925 72° East 439 505 39,000  Level Cleveland Center
11:26AM 41.7531 -79.9372 71° East 438 504 39,000  Level Cleveland Center
11:27AM 41.7908 -79.7817 72° East 436 502 39,000  Level Cleveland Center
11:28AM 41.8297 -79.6292 71° East 432 497 39,000  Level Cleveland Center
11:29AM 41.8681 -79.4758 71° East 436 502 39,000  Level Cleveland Center
11:30AM 41.9128 -79.2936 72° East 432 497 39,000  Level Cleveland Center
11:32AM 41.9492 -79.1411 72° East 431 496 39,000  Level Cleveland Center
11:33AM 41.9864 -78.9878 72° East 433 498 39,000  Level Cleveland Center
11:34AM 42.0236 -78.8314 72° East 438 504 39,000  Level Cleveland Center
11:35AM 42.0608 -78.6764 72° East 438 504 39,000  Level Cleveland Center
11:36AM 42.0978 -78.5219 72° East 437 503 39,000  Level Cleveland Center
11:37AM 42.1342 -78.3656 73° East 439 505 39,000  Level Cleveland Center
11:38AM 42.1786 -78.1794 72° East 441 507 39,000  Level Cleveland Center
11:39AM 42.2156 -78.0228 72° East 441 507 39,000  Level Cleveland Center
11:40AM 42.2517 -77.8653 73° East 444 511 39,000  Level Cleveland Center
11:41AM 42.2875 -77.7086 73° East 442 509 39,000  Level Cleveland Center
11:42AM 42.3228 -77.5528 73° East 440 506 39,000  Level Cleveland Center
11:43AM 42.3569 -77.3967 73° East 440 506 39,000  Level Cleveland Center
11:44AM 42.3997 -77.2097 73° East 440 506 39,000  Level Cleveland Center
11:45AM 42.4350 -77.0522 73° East 441 507 39,000  Level Cleveland Center
11:46AM 42.4547 -76.8872 81° East 447 514 39,000  Level Cleveland Center
11:47AM 42.4725 -76.7178 82° East 455 524 39,000  Level Cleveland Center
11:48AM 42.4917 -76.5497 81° East 454 522 39,000  Level Cleveland Center
11:49AM 42.5094 -76.3725 82° East 446 513 39,000  Level Boston Center
11:50AM 42.5153 -76.2008 87° East 446 513 39,000  Level Boston Center
11:51AM 42.5189 -76.0236 88° East 452 520 39,000  Level Boston Center
11:52AM 42.5222 -75.8519 88° East 458 527 39,000  Level Boston Center
11:53AM 42.5272 -75.6744 88° East 458 527 39,000  Level Boston Center
11:54AM 42.5300 -75.5000 89° East 458 527 39,000  Level Boston Center
11:55AM 42.5328 -75.3197 89° East 463 533 39,000  Level Boston Center
11:56AM 42.5369 -75.1425 88° East 463 533 39,000  Level Boston Center
11:57AM 42.5389 -74.9678 89° East 463 533 39,000  Level Boston Center
11:58AM 42.5431 -74.7733 88° East 463 533 39,000  Level Boston Center
11:59AM 42.5447 -74.5958 89° East 463 533 39,000  Level Boston Center
12:00PM 42.5478 -74.4242 89° East 463 533 39,000  Level Boston Center
12:01PM 42.5486 -74.2467 90° East 458 527 39,000  Level Boston Center
12:02PM 42.5511 -74.0719 89° East 458 527 39,000  Level Boston Center
12:03PM 42.5517 -73.8972 90° East 458 527 39,000  Level Boston Center
12:04PM 42.5536 -73.7169 89° East 458 527 39,000 -660 Level Boston Center
12:05PM 42.5533 -73.5419 90° East 458 527 37,700 -2,100 Descending Boston Center
12:06PM 42.5550 -73.3617 89° East 458 527 34,900 -2,580 Descending Boston Center
12:07PM 42.5564 -73.1786 89° East 474 545 32,600 -2,280 Descending Boston Center
12:08PM 42.5533 -73.0094 91° East 468 539 30,400 -2,160 Descending Boston Center
12:09PM 42.5519 -72.8403 91° East 454 522 28,300 -2,160 Descending Boston Center
12:10PM 42.5522 -72.6742 90° East 443 510 26,100 -2,280 Descending Boston Center
12:11PM 42.5506 -72.5217 91° East 430 495 23,900 -2,280 Descending Boston Center
12:12PM 42.5506 -72.3583 90° East 419 482 21,700 -1,980 Descending Boston Center
12:13PM 42.5481 -72.2258 91° East 413 475 20,000 -1,980 Descending Boston Center
12:14PM 42.5456 -72.0625 91° East 390 449 17,700 -2,340 Descending Boston Center
12:15PM 42.5325 -71.9161 97° East 384 442 15,400 -2,160 Descending Boston Center
12:16PM 42.5214 -71.7753 96° East 389 448 13,500 -2,100 Descending Boston Center
12:17PM 42.5000 -71.6167 100° East 367 422 11,100 -1,200 Descending KA90
12:18PM 42.5000 -71.4833 90° East 341 392 11,000 -360 Descending KA90
12:19PM 42.4833 -71.3667 101° East 309 356 10,400 -1,020 Descending KA90
12:20PM 42.4667 -71.2500 101° East 310 357 9,000 -1,440 Descending KA90
12:21PM 42.4667 -71.1333 90° East 301 346 7,600 -1,140 Descending KA90
12:22PM 42.4500 -71.0500 105° East 273 314 6,900 -780 Descending KA90
12:23PM 42.4167 -70.9667 118° Southeast 250 288 6,200 -840 Descending KA90
12:24PM 42.3833 -70.8833 118° Southeast 241 277 5,300 -900 Descending KA90
12:25PM 42.3333 -70.8167 135° Southeast 239 275 4,500 -660 Descending KA90
12:26PM 42.2833 -70.7667 143° Southeast 203 234 4,000 -480 Descending KA90
12:27PM 42.2500 -70.8167 228° Southwest 199 229 3,600 -600 Descending KA90
12:28PM 42.2667 -70.8833 289° West 169 194 2,900 -960 Descending KA90
12:29PM 42.3000 -70.9167 324° Northwest 150 173 1,700 -1,080 Descending KA90
12:30PM 42.3333 -70.9500 324° Northwest 135 155 800 -840 Descending KA90
12:31PM 42.3500 -70.9833 304° West 126 145 200 -720 Descending KA90